LiveATC.Net - Listen to live air traffic control over the Internet! Contact LiveATC.net for advertising information


ICAO: SAME  IATA: MDZ   Airport: Governor Francisco Gabrielli International Airport
City: Mendoza
Country: Argentina   Continent: South America
SAME METAR Weather: SAME 282000Z 07004KT CAVOK 31/06 Q1004
SAME Flight Activity (FlightAware)
SAME Twr/App/Center
Feed Status: DOWN
Last heard on: 2013-09-23 01:48:03 (431 days 18 hours 46 minutes ago)
SAME Twr/App/Center Audio Archives
FacilityFrequency
Mendoza Center126.600
Mendoza Control124.200
Mendoza Tower/Approach119.900
Mendoza Tower/Approach (Aux)118.500


NOTICE

Unauthorized use prohibited. See LiveATC.net Terms of Service


Find LiveATC Audio Streams


Airport/ARTCC Code

Frequency
(e.g., 124.400, 128.75)
Site-wide search

Browse LiveATC Feeds
LiveATC Coverage Map
Top 50 LiveATC Feeds
Bad Weather Areas

LiveATC FAQ
Offer a LiveATC Feed
Contact LiveATC.net
Press Inquiries

LiveATC on iPhone
LiveATC on Android

LiveATC Mobile
(Mobile browser)

ATC Audio Archives
Interesting Recordings

LiveATC Forums


Home Page
About LiveATC.net
Make a Donation
LiveATC Bookstore

Terms of Use
Privacy Policy

ATC/Radar Sites
U.S. ARTCC Freqs
Canadian Air Freqs

AIRMETs/SIGMETs

FAA Airport Status
Nat'l Airspace Status
Arrival Demand Charts


Server Software By:
Icecast.org
Liquidsoap

Please make a donation to help us keep growing!